createdAt,value
2019-01-30T00:01:03.755Z,99288.17
2019-01-30T00:02:10.442Z,99289.83
2019-01-30T00:03:17.516Z,99294.03
2019-01-30T00:04:24.329Z,99293.16
2019-01-30T00:05:31.029Z,99289.42
2019-01-30T00:06:37.677Z,99280.99
2019-01-30T00:07:44.363Z,99288.16
2019-01-30T00:08:51.100Z,99283.53
2019-01-30T00:09:57.788Z,99284.80
2019-01-30T00:11:04.743Z,99280.27
2019-01-30T00:12:11.402Z,99281.89
2019-01-30T00:13:19.873Z,99274.32
2019-01-30T00:14:26.547Z,99271.00
2019-01-30T00:15:33.922Z,99271.39
2019-01-30T00:16:40.717Z,99271.00
2019-01-30T00:17:47.408Z,99271.43
2019-01-30T00:18:54.143Z,99258.41
2019-01-30T00:20:01.171Z,99259.23
2019-01-30T00:21:07.853Z,99264.33
2019-01-30T00:22:15.356Z,99260.55
2019-01-30T00:23:22.030Z,99261.76
2019-01-30T00:24:29.007Z,99262.16
2019-01-30T00:25:35.696Z,99256.25
2019-01-30T00:26:42.848Z,99255.42
2019-01-30T00:27:49.561Z,99246.63
2019-01-30T00:28:56.301Z,99252.08
2019-01-30T00:30:04.464Z,99251.20
2019-01-30T00:31:11.670Z,99249.13
2019-01-30T00:32:18.362Z,99249.16
2019-01-30T00:33:25.458Z,99249.56
2019-01-30T00:34:32.124Z,99244.98
2019-01-30T00:35:39.168Z,99245.34
2019-01-30T00:36:45.896Z,99240.33
2019-01-30T00:37:52.682Z,99242.86
2019-01-30T00:38:59.707Z,99236.17
2019-01-30T00:40:07.399Z,99236.61
2019-01-30T00:41:14.481Z,99230.31
2019-01-30T00:42:21.147Z,99232.39
2019-01-30T00:43:28.352Z,99231.56
2019-01-30T00:44:35.049Z,99231.16
2019-01-30T00:45:41.765Z,99232.41
2019-01-30T00:46:48.580Z,99228.62
2019-01-30T00:47:55.343Z,99229.91
2019-01-30T00:49:01.978Z,99223.20
2019-01-30T00:50:10.686Z,99225.30
2019-01-30T00:51:17.340Z,99227.83
2019-01-30T00:52:24.058Z,99221.53
2019-01-30T00:53:30.852Z,99221.95
2019-01-30T00:54:37.514Z,99223.20
2019-01-30T00:55:44.246Z,99224.11
2019-01-30T00:56:50.927Z,99226.19
2019-01-30T00:57:57.973Z,99216.91
2019-01-30T00:59:05.036Z,99220.34
2019-01-30T01:00:16.934Z,99221.27
2019-01-30T01:01:24.031Z,99217.48
2019-01-30T01:02:31.272Z,99217.05
2019-01-30T01:03:37.912Z,99211.25
2019-01-30T01:04:44.839Z,99217.03
2019-01-30T01:05:51.896Z,99219.99
2019-01-30T01:06:58.755Z,99217.92
2019-01-30T01:08:05.655Z,99217.45
2019-01-30T01:09:12.344Z,99217.84
2019-01-30T01:10:19.614Z,99217.03
2019-01-30T01:11:26.729Z,99210.34
2019-01-30T01:12:33.434Z,99209.48
2019-01-30T01:13:40.190Z,99215.31
2019-01-30T01:14:46.845Z,99214.84
2019-01-30T01:15:53.905Z,99214.41
2019-01-30T01:17:00.636Z,99211.95
2019-01-30T01:18:08.091Z,99213.59
2019-01-30T01:19:14.745Z,99210.20
2019-01-30T01:20:22.132Z,99216.09
2019-01-30T01:21:28.807Z,99208.12
2019-01-30T01:22:36.033Z,99214.42
2019-01-30T01:23:43.415Z,99206.41
2019-01-30T01:24:50.410Z,99208.48
2019-01-30T01:25:57.186Z,99208.48
2019-01-30T01:27:03.880Z,99208.90
2019-01-30T01:28:10.773Z,99208.90
2019-01-30T01:29:17.409Z,99213.94
2019-01-30T01:30:27.220Z,99213.93
2019-01-30T01:31:34.191Z,99210.96
2019-01-30T01:32:40.855Z,99208.55
2019-01-30T01:33:47.702Z,99211.06
2019-01-30T01:34:54.723Z,99213.16
2019-01-30T01:36:01.688Z,99204.30
2019-01-30T01:37:08.658Z,99211.42
2019-01-30T01:38:15.309Z,99208.94
2019-01-30T01:39:22.318Z,99207.68
2019-01-30T01:40:29.561Z,99213.14
2019-01-30T01:41:36.236Z,99205.97
2019-01-30T01:42:42.953Z,99210.53
2019-01-30T01:43:50.040Z,99204.23
2019-01-30T01:44:56.785Z,99205.55
2019-01-30T01:46:03.855Z,99206.36
2019-01-30T01:47:10.883Z,99205.51
2019-01-30T01:48:18.131Z,99202.14
2019-01-30T01:49:25.204Z,99200.52
2019-01-30T01:50:31.890Z,99198.82
2019-01-30T01:51:38.613Z,99200.91
2019-01-30T01:52:45.494Z,99199.98
2019-01-30T01:53:53.048Z,99194.16
2019-01-30T01:55:00.077Z,99192.45
2019-01-30T01:56:07.396Z,99192.87
2019-01-30T01:57:14.469Z,99189.98
2019-01-30T01:58:21.911Z,99186.20
2019-01-30T01:59:28.942Z,99187.84
2019-01-30T02:00:35.896Z,99184.08
2019-01-30T02:01:42.595Z,99188.75
2019-01-30T02:02:49.506Z,99188.72
2019-01-30T02:03:57.034Z,99180.70
2019-01-30T02:05:04.080Z,99187.02
2019-01-30T02:06:10.736Z,99183.70
2019-01-30T02:07:17.430Z,99180.81
2019-01-30T02:08:24.130Z,99173.66
2019-01-30T02:09:31.159Z,99176.61
2019-01-30T02:10:37.849Z,99177.05
2019-01-30T02:11:44.520Z,99176.23
2019-01-30T02:12:51.501Z,99170.83
2019-01-30T02:13:58.191Z,99169.59
2019-01-30T02:15:06.472Z,99164.53
2019-01-30T02:16:13.428Z,99169.98
2019-01-30T02:17:20.105Z,99163.30
2019-01-30T02:18:27.485Z,99159.53
2019-01-30T02:19:34.763Z,99160.78
2019-01-30T02:20:41.506Z,99160.71
2019-01-30T02:21:48.465Z,99160.32
2019-01-30T02:22:55.186Z,99155.31
2019-01-30T02:24:01.872Z,99154.91
2019-01-30T02:25:10.882Z,99153.22
2019-01-30T02:26:17.583Z,99146.04
2019-01-30T02:27:24.582Z,99151.89
2019-01-30T02:28:31.235Z,99153.16
2019-01-30T02:29:38.287Z,99151.52
2019-01-30T02:30:47.561Z,99151.94
2019-01-30T02:31:53.648Z,99150.67
2019-01-30T02:33:00.403Z,99145.13
2019-01-30T02:34:07.138Z,99146.44
2019-01-30T02:35:13.852Z,99146.83
2019-01-30T02:36:20.956Z,99141.78
2019-01-30T02:37:27.668Z,99138.03
2019-01-30T02:38:34.685Z,99142.60
2019-01-30T02:39:41.710Z,99140.49
2019-01-30T02:40:48.387Z,99137.19
2019-01-30T02:41:55.786Z,99133.84
2019-01-30T02:43:02.495Z,99130.09
2019-01-30T02:44:09.157Z,99132.59
2019-01-30T02:45:19.712Z,99134.68
2019-01-30T02:46:26.931Z,99127.95
2019-01-30T02:47:33.634Z,99125.83
2019-01-30T02:48:40.678Z,99132.58
2019-01-30T02:49:47.328Z,99127.13
2019-01-30T02:50:54.588Z,99127.95
2019-01-30T02:52:01.304Z,99124.25
2019-01-30T02:53:08.105Z,99123.36
2019-01-30T02:54:14.749Z,99117.19
2019-01-30T02:55:21.863Z,99120.56
2019-01-30T02:56:29.270Z,99119.23
2019-01-30T02:57:36.046Z,99120.12
2019-01-30T02:58:42.746Z,99118.91
2019-01-30T02:59:49.771Z,99119.34
2019-01-30T03:00:59.481Z,99116.36
2019-01-30T03:02:24.327Z,99117.17
2019-01-30T03:03:31.409Z,99119.68
2019-01-30T03:04:38.073Z,99115.94
2019-01-30T03:05:45.482Z,99112.56
2019-01-30T03:06:52.172Z,99112.55
2019-01-30T03:07:58.988Z,99115.89
2019-01-30T03:09:07.695Z,99112.13
2019-01-30T03:10:17.733Z,99115.52
2019-01-30T03:11:24.732Z,99115.06
2019-01-30T03:12:31.423Z,99118.84
2019-01-30T03:13:38.274Z,99117.13
2019-01-30T03:14:45.252Z,99107.00
2019-01-30T03:15:51.979Z,99114.09
2019-01-30T03:16:59.119Z,99114.18
2019-01-30T03:18:06.005Z,99105.74
2019-01-30T03:19:12.750Z,99107.42
2019-01-30T03:20:23.374Z,99108.35
2019-01-30T03:21:30.165Z,99111.63
2019-01-30T03:22:36.864Z,99112.02
2019-01-30T03:23:43.542Z,99112.44
2019-01-30T03:24:50.595Z,99107.38
2019-01-30T03:25:57.291Z,99106.54
2019-01-30T03:27:04.026Z,99105.74
2019-01-30T03:28:10.698Z,99103.64
2019-01-30T03:29:17.783Z,99103.21
2019-01-30T03:30:30.906Z,99103.16
2019-01-30T03:31:37.670Z,99103.99
2019-01-30T03:32:45.042Z,99108.15
2019-01-30T03:33:52.088Z,99100.17
2019-01-30T03:34:59.409Z,99103.11
2019-01-30T03:36:06.097Z,99103.95
2019-01-30T03:37:12.813Z,99100.24
2019-01-30T03:38:19.774Z,99098.12
2019-01-30T03:39:26.459Z,99099.39
2019-01-30T03:40:33.183Z,99093.53
2019-01-30T03:41:39.968Z,99101.92
2019-01-30T03:42:46.856Z,99091.42
2019-01-30T03:43:53.956Z,99099.41
2019-01-30T03:45:01.635Z,99099.78
2019-01-30T03:46:08.345Z,99088.08
2019-01-30T03:47:15.003Z,99096.00
2019-01-30T03:48:21.665Z,99094.73
2019-01-30T03:49:28.544Z,99089.31
2019-01-30T03:50:35.174Z,99091.38
2019-01-30T03:51:42.235Z,99089.31
2019-01-30T03:52:49.329Z,99086.01
2019-01-30T03:53:56.392Z,99081.01
2019-01-30T03:55:03.195Z,99077.56
2019-01-30T03:56:10.258Z,99080.13
2019-01-30T03:57:16.891Z,99081.80
2019-01-30T03:58:23.620Z,99079.33
2019-01-30T03:59:30.651Z,99075.95
2019-01-30T04:00:37.376Z,99077.65
2019-01-30T04:01:44.364Z,99074.25
2019-01-30T04:02:52.025Z,99073.06
2019-01-30T04:03:58.757Z,99078.09
2019-01-30T04:05:05.855Z,99072.27
2019-01-30T04:06:12.944Z,99071.45
2019-01-30T04:07:19.646Z,99077.66
2019-01-30T04:08:26.351Z,99074.67
2019-01-30T04:09:32.965Z,99073.89
2019-01-30T04:10:39.693Z,99074.34
2019-01-30T04:11:46.502Z,99071.05
2019-01-30T04:12:53.412Z,99065.95
2019-01-30T04:14:00.852Z,99065.55
2019-01-30T04:15:08.833Z,99068.98
2019-01-30T04:16:15.875Z,99065.19
2019-01-30T04:17:22.757Z,99058.97
2019-01-30T04:18:29.479Z,99069.84
2019-01-30T04:19:36.144Z,99069.39
2019-01-30T04:20:43.261Z,99064.36
2019-01-30T04:21:50.354Z,99065.19
2019-01-30T04:22:57.363Z,99061.85
2019-01-30T04:24:04.403Z,99060.61
2019-01-30T04:25:11.594Z,99059.79
2019-01-30T04:26:18.775Z,99063.11
2019-01-30T04:27:25.480Z,99059.77
2019-01-30T04:28:32.203Z,99056.02
2019-01-30T04:29:39.174Z,99055.14
2019-01-30T04:30:45.869Z,99058.92
2019-01-30T04:31:52.824Z,99056.48
2019-01-30T04:32:59.898Z,99056.91
2019-01-30T04:34:07.040Z,99056.85
2019-01-30T04:35:13.703Z,99044.67
2019-01-30T04:36:20.728Z,99046.38
2019-01-30T04:37:27.798Z,99047.58
2019-01-30T04:38:34.882Z,99046.33
2019-01-30T04:39:41.556Z,99041.27
2019-01-30T04:40:48.604Z,99043.33
2019-01-30T04:41:55.316Z,99037.02
2019-01-30T04:43:02.529Z,99036.63
2019-01-30T04:44:09.190Z,99042.97
2019-01-30T04:45:19.488Z,99032.45
2019-01-30T04:46:26.184Z,99040.44
2019-01-30T04:47:33.548Z,99039.18
2019-01-30T04:48:40.381Z,99037.89
2019-01-30T04:49:47.113Z,99033.78
2019-01-30T04:50:54.137Z,99036.69
2019-01-30T04:52:01.662Z,99031.22
2019-01-30T04:53:08.778Z,99034.97
2019-01-30T04:54:15.607Z,99037.89
2019-01-30T04:55:22.302Z,99029.45
2019-01-30T04:56:29.125Z,99028.64
2019-01-30T04:57:35.848Z,99033.23
2019-01-30T04:58:42.516Z,99035.39
2019-01-30T04:59:49.807Z,99034.16
2019-01-30T05:00:56.881Z,99031.20
2019-01-30T05:02:03.819Z,99030.39
2019-01-30T05:03:10.840Z,99026.67
2019-01-30T05:04:17.915Z,99029.15
2019-01-30T05:05:24.747Z,99026.69
2019-01-30T05:06:31.468Z,99025.83
2019-01-30T05:07:38.127Z,99020.77
2019-01-30T05:08:44.795Z,99022.02
2019-01-30T05:09:51.789Z,99024.11
2019-01-30T05:10:58.501Z,99018.73
2019-01-30T05:12:05.440Z,99014.57
2019-01-30T05:13:12.593Z,99019.16
2019-01-30T05:14:19.739Z,99016.64
2019-01-30T05:15:26.487Z,99013.23
2019-01-30T05:16:33.148Z,99015.30
2019-01-30T05:17:40.150Z,99022.46
2019-01-30T05:18:47.041Z,99023.36
2019-01-30T05:19:53.986Z,99016.60
2019-01-30T05:21:00.622Z,99015.30
2019-01-30T05:22:07.307Z,99021.22
2019-01-30T05:23:13.989Z,99021.66
2019-01-30T05:24:21.154Z,99024.63
2019-01-30T05:25:27.843Z,99021.30
2019-01-30T05:26:34.833Z,99018.73
2019-01-30T05:27:41.812Z,99018.27
2019-01-30T05:28:48.538Z,99013.66
2019-01-30T05:29:55.590Z,99019.13
2019-01-30T05:31:02.254Z,99022.94
2019-01-30T05:32:09.114Z,99023.77
2019-01-30T05:33:16.153Z,99026.27
2019-01-30T05:34:24.644Z,99022.84
2019-01-30T05:35:32.097Z,99022.11
2019-01-30T05:36:38.784Z,99020.80
2019-01-30T05:37:45.771Z,99019.88
2019-01-30T05:38:52.568Z,99020.31
2019-01-30T05:39:59.332Z,99027.89
2019-01-30T05:41:06.020Z,99018.69
2019-01-30T05:42:13.203Z,99022.58
2019-01-30T05:43:20.193Z,99019.63
2019-01-30T05:44:27.161Z,99013.33
2019-01-30T05:45:34.135Z,99008.77
2019-01-30T05:46:41.244Z,99005.34
2019-01-30T05:47:47.937Z,99008.77
2019-01-30T05:48:54.650Z,99014.21
2019-01-30T05:50:01.368Z,99011.28
2019-01-30T05:51:08.125Z,99009.58
2019-01-30T05:52:14.826Z,99004.94
2019-01-30T05:53:21.575Z,99006.22
2019-01-30T05:54:28.350Z,99007.05
2019-01-30T05:55:35.054Z,99010.00
2019-01-30T05:56:41.729Z,99000.40
2019-01-30T05:57:48.488Z,99010.00
2019-01-30T05:58:55.359Z,99006.20
2019-01-30T06:00:02.024Z,99004.89
2019-01-30T06:01:09.131Z,99009.58
2019-01-30T06:02:15.926Z,98997.84
2019-01-30T06:03:22.983Z,99002.35
2019-01-30T06:04:29.697Z,99005.39
2019-01-30T06:05:36.390Z,99001.56
2019-01-30T06:06:43.088Z,99003.21
2019-01-30T06:07:49.796Z,98992.73
2019-01-30T06:08:56.470Z,99002.34
2019-01-30T06:10:04.063Z,98999.45
2019-01-30T06:11:12.237Z,98991.45
2019-01-30T06:12:18.906Z,98990.23
2019-01-30T06:13:26.593Z,98991.12
2019-01-30T06:14:33.289Z,98988.50
2019-01-30T06:15:40.362Z,98988.46
2019-01-30T06:16:49.345Z,98985.14
2019-01-30T06:18:18.489Z,98988.52
2019-01-30T06:19:25.294Z,98986.41
2019-01-30T06:20:32.107Z,98983.44
2019-01-30T06:21:38.795Z,98977.98
2019-01-30T06:22:46.120Z,98974.64
2019-01-30T06:23:52.920Z,98984.33
2019-01-30T06:24:59.989Z,98978.91
2019-01-30T06:26:06.744Z,98980.13
2019-01-30T06:27:13.651Z,98979.77
2019-01-30T06:28:20.744Z,98981.08
2019-01-30T06:29:27.581Z,98977.29
2019-01-30T06:30:34.561Z,98973.08
2019-01-30T06:31:41.594Z,98977.64
2019-01-30T06:32:48.346Z,98972.66
2019-01-30T06:33:55.465Z,98977.70
2019-01-30T06:35:02.155Z,98976.03
2019-01-30T06:36:09.171Z,98984.35
2019-01-30T06:37:18.271Z,98978.05
2019-01-30T06:38:24.781Z,98975.91
2019-01-30T06:39:31.430Z,98974.25
2019-01-30T06:40:38.472Z,98972.66
2019-01-30T06:41:45.488Z,98970.52
2019-01-30T06:42:52.538Z,98977.27
2019-01-30T06:43:59.704Z,98976.44
2019-01-30T06:45:07.709Z,98967.16
2019-01-30T06:46:14.370Z,98973.88
2019-01-30T06:47:21.099Z,98965.91
2019-01-30T06:48:28.157Z,98966.72
2019-01-30T06:49:35.542Z,98964.72
2019-01-30T06:50:42.486Z,98964.31
2019-01-30T06:51:49.158Z,98966.84
2019-01-30T06:52:56.143Z,98963.86
2019-01-30T06:54:02.794Z,98957.14
2019-01-30T06:55:10.212Z,98958.39
2019-01-30T06:56:16.931Z,98959.21
2019-01-30T06:57:24.030Z,98956.76
2019-01-30T06:58:30.704Z,98959.44
2019-01-30T06:59:37.397Z,98963.66
2019-01-30T07:00:44.460Z,98959.82
2019-01-30T07:01:51.133Z,98962.33
2019-01-30T07:02:59.433Z,98958.98
2019-01-30T07:04:06.177Z,98955.19
2019-01-30T07:05:13.297Z,98950.94
2019-01-30T07:06:20.082Z,98952.94
2019-01-30T07:07:26.820Z,98951.31
2019-01-30T07:08:33.501Z,98951.30
2019-01-30T07:09:40.191Z,98944.13
2019-01-30T07:10:47.235Z,98950.92
2019-01-30T07:11:54.100Z,98944.91
2019-01-30T07:13:01.799Z,98944.99
2019-01-30T07:14:08.794Z,98939.97
2019-01-30T07:15:16.811Z,98937.93
2019-01-30T07:16:23.514Z,98940.42
2019-01-30T07:17:30.192Z,98934.94
2019-01-30T07:18:37.178Z,98936.63
2019-01-30T07:19:43.866Z,98932.41
2019-01-30T07:20:50.557Z,98928.69
2019-01-30T07:21:57.238Z,98925.77
2019-01-30T07:23:03.983Z,98931.17
2019-01-30T07:24:10.688Z,98924.43
2019-01-30T07:25:19.135Z,98927.75
2019-01-30T07:26:25.874Z,98926.11
2019-01-30T07:27:32.899Z,98919.80
2019-01-30T07:28:39.609Z,98924.09
2019-01-30T07:29:46.273Z,98931.25
2019-01-30T07:30:53.309Z,98926.68
2019-01-30T07:32:00.018Z,98928.79
2019-01-30T07:33:08.350Z,98924.97
2019-01-30T07:34:15.207Z,98925.00
2019-01-30T07:35:21.933Z,98920.77
2019-01-30T07:36:28.671Z,98927.89
2019-01-30T07:37:35.804Z,98924.91
2019-01-30T07:38:42.873Z,98919.50
2019-01-30T07:39:50.249Z,98920.33
2019-01-30T07:40:57.354Z,98921.98
2019-01-30T07:42:04.029Z,98922.34
2019-01-30T07:43:10.806Z,98919.84
2019-01-30T07:44:17.868Z,98921.88
2019-01-30T07:45:27.655Z,98921.05
2019-01-30T07:46:34.770Z,98920.11
2019-01-30T07:47:42.127Z,98918.10
2019-01-30T07:48:48.812Z,98920.17
2019-01-30T07:49:55.623Z,98920.25
2019-01-30T07:51:02.650Z,98923.51
2019-01-30T07:52:09.415Z,98915.49
2019-01-30T07:53:18.399Z,98921.38
2019-01-30T07:54:24.789Z,98923.91
2019-01-30T07:55:31.896Z,98920.05
2019-01-30T07:56:38.719Z,98925.50
2019-01-30T07:57:45.906Z,98927.13
2019-01-30T07:58:52.956Z,98925.86
2019-01-30T07:59:59.676Z,98924.13
2019-01-30T08:01:06.655Z,98925.06
2019-01-30T08:02:13.758Z,98925.83
2019-01-30T08:03:20.711Z,98924.11
2019-01-30T08:04:28.078Z,98927.08
2019-01-30T08:05:35.074Z,98928.20
2019-01-30T08:06:41.872Z,98925.29
2019-01-30T08:07:48.688Z,98932.92
2019-01-30T08:08:55.309Z,98934.57
2019-01-30T08:10:02.008Z,98934.51
2019-01-30T08:11:09.105Z,98937.87
2019-01-30T08:12:16.413Z,98936.61
2019-01-30T08:13:23.252Z,98943.31
2019-01-30T08:14:30.003Z,98932.84
2019-01-30T08:15:37.159Z,98939.11
2019-01-30T08:16:44.215Z,98938.28
2019-01-30T08:17:51.086Z,98936.22
2019-01-30T08:18:57.850Z,98935.83
2019-01-30T08:20:05.424Z,98932.11
2019-01-30T08:21:12.088Z,98934.57
2019-01-30T08:22:19.129Z,98928.26
2019-01-30T08:23:26.348Z,98926.52
2019-01-30T08:24:33.054Z,98928.11
2019-01-30T08:25:40.171Z,98925.58
2019-01-30T08:26:47.277Z,98925.55
2019-01-30T08:27:54.381Z,98931.86
2019-01-30T08:29:01.454Z,98933.11
2019-01-30T08:30:23.688Z,98931.40
2019-01-30T08:31:30.359Z,98935.55
2019-01-30T08:32:37.250Z,98940.19
2019-01-30T08:33:44.016Z,98943.07
2019-01-30T08:34:50.711Z,98942.22
2019-01-30T08:35:57.599Z,98935.45
2019-01-30T08:37:04.298Z,98940.05
2019-01-30T08:38:11.414Z,98938.31
2019-01-30T08:39:18.120Z,98940.75
2019-01-30T08:40:24.820Z,98938.66
2019-01-30T08:41:31.969Z,98938.62
2019-01-30T08:42:38.989Z,98940.69
2019-01-30T08:43:45.724Z,98937.84
2019-01-30T08:44:52.714Z,98939.89
2019-01-30T08:45:59.367Z,98939.08
2019-01-30T08:47:06.481Z,98937.42
2019-01-30T08:48:13.503Z,98937.73
2019-01-30T08:49:20.229Z,98940.22
2019-01-30T08:50:27.210Z,98941.11
2019-01-30T08:51:34.295Z,98938.97
2019-01-30T08:52:41.016Z,98939.74
2019-01-30T08:53:48.048Z,98934.59
2019-01-30T08:54:55.009Z,98936.28
2019-01-30T08:56:01.982Z,98936.77
2019-01-30T08:57:08.629Z,98942.22
2019-01-30T08:58:15.384Z,98943.81
2019-01-30T08:59:22.296Z,98938.27
2019-01-30T09:00:30.282Z,98935.20
2019-01-30T09:01:36.937Z,98939.36
2019-01-30T09:02:43.652Z,98928.86
2019-01-30T09:03:50.712Z,98933.53
2019-01-30T09:04:57.434Z,98941.47
2019-01-30T09:06:04.189Z,98941.88
2019-01-30T09:07:11.262Z,98937.23
2019-01-30T09:08:18.211Z,98933.55
2019-01-30T09:09:24.953Z,98939.42
2019-01-30T09:10:31.947Z,98933.48
2019-01-30T09:11:38.886Z,98929.77
2019-01-30T09:12:45.926Z,98931.42
2019-01-30T09:13:52.628Z,98932.77
2019-01-30T09:14:59.348Z,98933.96
2019-01-30T09:16:06.880Z,98925.55
2019-01-30T09:17:13.552Z,98927.58
2019-01-30T09:18:20.441Z,98928.86
2019-01-30T09:19:27.449Z,98933.78
2019-01-30T09:20:34.096Z,98929.96
2019-01-30T09:21:40.872Z,98937.94
2019-01-30T09:22:47.539Z,98930.70
2019-01-30T09:23:54.193Z,98940.28
2019-01-30T09:25:01.481Z,98937.30
2019-01-30T09:26:08.128Z,98937.77
2019-01-30T09:27:14.886Z,98945.17
2019-01-30T09:28:21.577Z,98936.34
2019-01-30T09:29:28.292Z,98945.09
2019-01-30T09:30:38.354Z,98939.16
2019-01-30T09:31:45.035Z,98937.84
2019-01-30T09:32:51.772Z,98929.59
2019-01-30T09:33:58.810Z,98934.47
2019-01-30T09:35:06.060Z,98939.49
2019-01-30T09:36:12.815Z,98940.25
2019-01-30T09:37:19.522Z,98932.23
2019-01-30T09:38:26.864Z,98938.47
2019-01-30T09:39:34.035Z,98935.13
2019-01-30T09:40:40.834Z,98935.95
2019-01-30T09:41:47.536Z,98938.91
2019-01-30T09:42:54.748Z,98931.75
2019-01-30T09:44:02.170Z,98934.27
2019-01-30T09:45:10.731Z,98938.06
2019-01-30T09:46:17.463Z,98933.02
2019-01-30T09:47:24.099Z,98932.11
2019-01-30T09:48:30.852Z,98930.75
2019-01-30T09:49:37.652Z,98930.78
2019-01-30T09:50:44.386Z,98931.94
2019-01-30T09:51:51.117Z,98935.63
2019-01-30T09:52:58.156Z,98939.30
2019-01-30T09:54:04.871Z,98941.83
2019-01-30T09:55:13.309Z,98937.53
2019-01-30T09:56:20.025Z,98945.11
2019-01-30T09:57:27.097Z,98943.86
2019-01-30T09:58:33.796Z,98942.66
2019-01-30T09:59:40.449Z,98946.39
2019-01-30T10:00:47.280Z,98946.03
2019-01-30T10:01:54.406Z,98945.52
2019-01-30T10:03:01.342Z,98947.61
2019-01-30T10:04:08.502Z,98944.13
2019-01-30T10:05:15.505Z,98949.28
2019-01-30T10:06:22.474Z,98948.02
2019-01-30T10:07:29.147Z,98950.59
2019-01-30T10:08:35.857Z,98944.61
2019-01-30T10:09:42.885Z,98943.63
2019-01-30T10:10:49.573Z,98952.14
2019-01-30T10:11:56.290Z,98949.92
2019-01-30T10:13:03.514Z,98952.80
2019-01-30T10:14:10.240Z,98953.27
2019-01-30T10:15:19.587Z,98948.94
2019-01-30T10:16:26.864Z,98947.52
2019-01-30T10:17:33.898Z,98948.31
2019-01-30T10:18:40.814Z,98940.80
2019-01-30T10:19:47.570Z,98942.39
2019-01-30T10:20:54.589Z,98952.98
2019-01-30T10:22:01.342Z,98947.44
2019-01-30T10:23:08.482Z,98948.26
2019-01-30T10:24:16.235Z,98950.84
2019-01-30T10:25:23.061Z,98950.84
2019-01-30T10:26:30.078Z,98948.78
2019-01-30T10:27:36.720Z,98947.27
2019-01-30T10:28:43.726Z,98945.97
2019-01-30T10:29:50.435Z,98950.62
2019-01-30T10:30:57.478Z,98945.95
2019-01-30T10:32:04.552Z,98947.16
2019-01-30T10:33:11.241Z,98946.70
2019-01-30T10:34:18.219Z,98944.09
2019-01-30T10:35:24.984Z,98937.30
2019-01-30T10:36:31.943Z,98943.59
2019-01-30T10:37:38.599Z,98939.86
2019-01-30T10:38:45.315Z,98942.83
2019-01-30T10:39:52.709Z,98942.24
2019-01-30T10:40:59.640Z,98938.75
2019-01-30T10:42:06.721Z,98942.16
2019-01-30T10:43:13.597Z,98941.92
2019-01-30T10:44:20.331Z,98941.45
2019-01-30T10:45:27.253Z,98941.78
2019-01-30T10:46:34.288Z,98940.08
2019-01-30T10:47:41.638Z,98943.31
2019-01-30T10:48:48.712Z,98935.76
2019-01-30T10:49:55.831Z,98938.20
2019-01-30T10:51:02.525Z,98933.30
2019-01-30T10:52:09.600Z,98935.55
2019-01-30T10:53:17.919Z,98934.14
2019-01-30T10:54:24.558Z,98934.17
2019-01-30T10:55:32.871Z,98935.95
2019-01-30T10:56:39.858Z,98931.76
2019-01-30T10:57:48.091Z,98932.09
2019-01-30T10:58:54.807Z,98933.67
2019-01-30T11:00:01.923Z,98930.70
2019-01-30T11:01:08.884Z,98928.81
2019-01-30T11:02:15.968Z,98929.64
2019-01-30T11:03:23.086Z,98935.02
2019-01-30T11:04:29.786Z,98929.83
2019-01-30T11:05:36.438Z,98931.14
2019-01-30T11:06:43.146Z,98930.67
2019-01-30T11:07:49.992Z,98925.71
2019-01-30T11:08:57.002Z,98926.56
2019-01-30T11:10:03.705Z,98926.56
2019-01-30T11:11:10.415Z,98927.45
2019-01-30T11:12:17.163Z,98925.55
2019-01-30T11:13:24.045Z,98931.41
2019-01-30T11:14:31.064Z,98927.57
2019-01-30T11:15:38.138Z,98926.19
2019-01-30T11:16:45.212Z,98924.52
2019-01-30T11:17:52.190Z,98922.75
2019-01-30T11:18:59.351Z,98926.16
2019-01-30T11:20:08.192Z,98920.58
2019-01-30T11:21:14.901Z,98920.55
2019-01-30T11:22:21.946Z,98915.52
2019-01-30T11:23:29.142Z,98921.58
2019-01-30T11:24:36.089Z,98914.00
2019-01-30T11:25:45.624Z,98910.62
2019-01-30T11:26:52.367Z,98908.62
2019-01-30T11:27:59.137Z,98916.13
2019-01-30T11:29:06.698Z,98915.16
2019-01-30T11:30:14.307Z,98912.97
2019-01-30T11:31:21.339Z,98908.70
2019-01-30T11:32:28.711Z,98908.62
2019-01-30T11:33:35.712Z,98906.94
2019-01-30T11:34:42.763Z,98907.20
2019-01-30T11:35:49.463Z,98906.73
2019-01-30T11:36:56.176Z,98914.28
2019-01-30T11:38:03.326Z,98913.41
2019-01-30T11:39:10.332Z,98913.31
2019-01-30T11:40:18.806Z,98909.11
2019-01-30T11:41:25.533Z,98908.64
2019-01-30T11:42:32.216Z,98907.06
2019-01-30T11:43:38.927Z,98905.23
2019-01-30T11:44:45.574Z,98907.25
2019-01-30T11:45:52.866Z,98900.08
2019-01-30T11:46:59.548Z,98908.91
2019-01-30T11:48:06.853Z,98901.15
2019-01-30T11:49:13.962Z,98891.01
2019-01-30T11:50:20.659Z,98897.80
2019-01-30T11:51:27.296Z,98894.75
2019-01-30T11:52:34.387Z,98896.48
2019-01-30T11:53:41.217Z,98893.07
2019-01-30T11:54:48.226Z,98896.77
2019-01-30T11:55:54.943Z,98895.06
2019-01-30T11:57:01.713Z,98893.95
2019-01-30T11:58:09.073Z,98893.33
2019-01-30T11:59:15.987Z,98896.27
2019-01-30T12:00:28.942Z,98897.80
2019-01-30T12:01:35.625Z,98891.27
2019-01-30T12:02:47.878Z,98890.98
2019-01-30T12:03:50.975Z,98894.74
2019-01-30T12:04:57.693Z,98895.03
2019-01-30T12:06:05.025Z,98896.23
2019-01-30T12:07:12.211Z,98898.19
2019-01-30T12:08:19.384Z,98899.96
2019-01-30T12:09:26.747Z,98894.88
2019-01-30T12:10:33.455Z,98893.52
2019-01-30T12:11:40.442Z,98892.82
2019-01-30T12:12:47.421Z,98896.93
2019-01-30T12:13:54.134Z,98893.89
2019-01-30T12:15:01.194Z,98896.99
2019-01-30T12:16:07.940Z,98898.70
2019-01-30T12:17:15.011Z,98899.93
2019-01-30T12:18:22.192Z,98896.02
2019-01-30T12:19:28.854Z,98895.60
2019-01-30T12:20:35.834Z,98897.28
2019-01-30T12:21:42.525Z,98896.02
2019-01-30T12:22:49.548Z,98894.84
2019-01-30T12:23:56.552Z,98894.05
2019-01-30T12:25:03.270Z,98897.59
2019-01-30T12:26:09.951Z,98891.71
2019-01-30T12:27:16.996Z,98893.29
2019-01-30T12:28:23.827Z,98894.40
2019-01-30T12:29:30.510Z,98895.31
2019-01-30T12:30:37.631Z,98893.58
2019-01-30T12:31:44.291Z,98891.94
2019-01-30T12:32:51.587Z,98890.41
2019-01-30T12:33:59.189Z,98895.15
2019-01-30T12:35:07.164Z,98896.80
2019-01-30T12:36:13.879Z,98895.13
2019-01-30T12:37:20.597Z,98894.23
2019-01-30T12:38:27.690Z,98893.52
2019-01-30T12:39:34.342Z,98897.69
2019-01-30T12:40:41.189Z,98895.98
2019-01-30T12:41:47.898Z,98895.60
2019-01-30T12:42:54.783Z,98896.65
2019-01-30T12:44:01.455Z,98894.91
2019-01-30T12:45:11.622Z,98896.90
2019-01-30T12:46:18.325Z,98901.42
2019-01-30T12:47:25.397Z,98903.75
2019-01-30T12:48:32.119Z,98902.33
2019-01-30T12:49:38.813Z,98902.20
2019-01-30T12:50:45.631Z,98903.49
2019-01-30T12:51:52.372Z,98901.35
2019-01-30T12:52:59.330Z,98899.14
2019-01-30T12:54:06.047Z,98900.30
2019-01-30T12:55:12.955Z,98895.14
2019-01-30T12:56:20.294Z,98896.72
2019-01-30T12:57:27.406Z,98896.37
2019-01-30T12:58:34.163Z,98895.63
2019-01-30T12:59:41.519Z,98895.31
2019-01-30T13:00:48.647Z,98896.52
2019-01-30T13:01:55.694Z,98893.88
2019-01-30T13:03:02.857Z,98894.39
2019-01-30T13:04:09.828Z,98898.59
2019-01-30T13:05:17.953Z,98896.00
2019-01-30T13:06:25.216Z,98890.35
2019-01-30T13:07:31.875Z,98895.60
2019-01-30T13:08:38.857Z,98892.73